Gonaives, Haiti
Current Conditions -  °F | °C
As of 11:00 AM on Thursday 30 Oct 2014 (Local Time) from MDST Reporting Station
Few Clouds Few Clouds  
Wind Chill: 88°   Ceiling: Unl
Heat Index: 96°   Visibility: 6mi
Dew Point: 73°   Wind: 7mph
Humidity: 62%   Direction: 120°ESE
Pressure: 29.85"   Gusts: NA
Location:  19.45°N, 72.69°W
Report Text: MDST 301600Z 12006KT 9999 FEW025 31/23 Q1011
Loading
Personal Weather Stations






























Interactive Weather Map
Tropical Storm Tracking
New forecast layout! Learn more

10-Day Weather Forecast

Advertisements
Track Severe Weather on mobile